createdAt,value
2016-07-10T00:01:17.170Z,1010.35
2016-07-10T00:04:30.307Z,1010.35
2016-07-10T00:07:45.633Z,1010.41
2016-07-10T00:10:59.871Z,1010.41
2016-07-10T00:14:14.711Z,1010.43
2016-07-10T00:17:27.352Z,1010.41
2016-07-10T00:20:45.589Z,1010.33
2016-07-10T00:23:51.330Z,1010.35
2016-07-10T00:27:04.396Z,1010.33
2016-07-10T00:30:19.948Z,1010.29
2016-07-10T00:33:34.175Z,1010.23
2016-07-10T00:36:48.479Z,1010.23
2016-07-10T00:40:02.874Z,1010.25
2016-07-10T00:43:17.177Z,1010.25
2016-07-10T00:46:31.307Z,1010.25
2016-07-10T00:49:45.696Z,1010.31
2016-07-10T00:53:00.085Z,1010.21
2016-07-10T00:56:14.574Z,1010.23
2016-07-10T00:59:27.373Z,1010.19
2016-07-10T01:02:45.694Z,1010.13
2016-07-10T01:05:51.405Z,1010.09
2016-07-10T01:09:05.733Z,1010.07
2016-07-10T01:12:19.941Z,1010.13
2016-07-10T01:15:34.411Z,1010.15
2016-07-10T01:18:48.780Z,1010.09
2016-07-10T01:22:02.881Z,1010.15
2016-07-10T01:25:14.602Z,1010.11
2016-07-10T01:28:29.017Z,1010.09
2016-07-10T01:31:45.253Z,1010.11
2016-07-10T01:34:51.120Z,1010.01
2016-07-10T01:38:05.578Z,1009.99
2016-07-10T01:41:20.022Z,1009.87
2016-07-10T01:44:34.428Z,1010.03
2016-07-10T01:47:48.662Z,1010.03
2016-07-10T01:51:03.238Z,1010.01
2016-07-10T01:54:17.670Z,1010.03
2016-07-10T01:57:32.239Z,1010.01
2016-07-10T02:00:46.744Z,1009.87
2016-07-10T02:04:01.215Z,1009.89
2016-07-10T02:07:15.692Z,1009.78
2016-07-10T02:10:30.025Z,1009.7
2016-07-10T02:13:48.524Z,1009.66
2016-07-10T02:16:54.314Z,1009.6
2016-07-10T02:20:08.706Z,1009.62
2016-07-10T02:23:23.302Z,1009.54
2016-07-10T02:26:41.926Z,1009.5
2016-07-10T02:29:47.703Z,1009.48
2016-07-10T02:33:02.254Z,1009.4
2016-07-10T02:36:16.606Z,1009.44
2016-07-10T02:39:31.267Z,1009.48
2016-07-10T02:42:45.876Z,1009.42
2016-07-10T02:46:00.250Z,1009.26
2016-07-10T02:49:14.435Z,1009.32
2016-07-10T02:52:28.912Z,1009.36
2016-07-10T02:55:47.221Z,1009.26
2016-07-10T02:58:53.102Z,1009.16
2016-07-10T03:02:07.606Z,1009.1
2016-07-10T03:05:22.133Z,1009.12
2016-07-10T03:08:40.622Z,1009.16
2016-07-10T03:11:46.406Z,1009.12
2016-07-10T03:15:00.678Z,1009.14
2016-07-10T03:18:15.197Z,1009.1
2016-07-10T03:21:29.851Z,1009.1
2016-07-10T03:24:48.296Z,1009.1
2016-07-10T03:27:54.108Z,1009.14
2016-07-10T03:31:08.406Z,1009.12
2016-07-10T03:34:22.879Z,1008.96
2016-07-10T03:37:41.268Z,1009.02
2016-07-10T03:40:47.032Z,1008.94
2016-07-10T03:44:01.458Z,1008.92
2016-07-10T03:47:15.748Z,1008.9
2016-07-10T03:50:30.152Z,1008.9
2016-07-10T03:53:48.647Z,1008.74
2016-07-10T03:56:54.438Z,1008.86
2016-07-10T04:00:09.028Z,1008.88
2016-07-10T04:03:23.775Z,1009.02
2016-07-10T04:06:41.926Z,1008.84
2016-07-10T04:09:47.646Z,1008.86
2016-07-10T04:13:02.033Z,1008.82
2016-07-10T04:16:16.409Z,1008.82
2016-07-10T04:19:30.921Z,1008.8
2016-07-10T04:22:44.762Z,1008.76
2016-07-10T04:25:59.252Z,1008.58
2016-07-10T04:29:13.681Z,1008.76
2016-07-10T04:32:28.123Z,1008.76
2016-07-10T04:35:46.428Z,1008.68
2016-07-10T04:38:52.252Z,1008.74
2016-07-10T04:42:06.218Z,1008.84
2016-07-10T04:45:20.588Z,1008.82
2016-07-10T04:48:38.910Z,1008.82
2016-07-10T04:51:48.689Z,1008.86
2016-07-10T04:54:54.486Z,1008.84
2016-07-10T04:58:08.678Z,1008.82
2016-07-10T05:01:23.221Z,1008.82
2016-07-10T05:04:41.245Z,1008.76
2016-07-10T05:07:46.990Z,1008.72
2016-07-10T05:11:01.589Z,1008.72
2016-07-10T05:14:16.205Z,1008.7
2016-07-10T05:17:30.594Z,1008.78
2016-07-10T05:20:45.370Z,1008.74
2016-07-10T05:24:00.005Z,1008.78
2016-07-10T05:27:14.581Z,1008.68
2016-07-10T05:30:29.354Z,1008.68
2016-07-10T05:33:47.976Z,1008.64
2016-07-10T05:36:53.989Z,1008.64
2016-07-10T05:40:08.758Z,1008.7
2016-07-10T05:43:23.481Z,1008.62
2016-07-10T05:46:42.301Z,1008.66
2016-07-10T05:49:48.405Z,1008.44
2016-07-10T05:53:02.992Z,1008.56
2016-07-10T05:56:17.780Z,1008.56
2016-07-10T05:59:32.641Z,1008.48
2016-07-10T06:02:47.575Z,1008.44
2016-07-10T06:06:02.235Z,1008.52
2016-07-10T06:09:16.999Z,1008.52
2016-07-10T06:12:31.918Z,1008.52
2016-07-10T06:15:46.871Z,1008.5
2016-07-10T06:19:01.902Z,1008.38
2016-07-10T06:22:16.864Z,1008.44
2016-07-10T06:25:31.752Z,1008.38
2016-07-10T06:28:46.608Z,1008.36
2016-07-10T06:32:01.689Z,1008.2
2016-07-10T06:35:16.975Z,1008.24
2016-07-10T06:38:32.488Z,1008.2
2016-07-10T06:41:47.873Z,1008.12
2016-07-10T06:45:03.548Z,1008.14
2016-07-10T06:48:19.290Z,1007.98
2016-07-10T06:51:34.895Z,1007.97
2016-07-10T06:54:49.331Z,1007.87
2016-07-10T06:58:06.087Z,1007.79
2016-07-10T07:01:21.653Z,1007.71
2016-07-10T07:04:41.423Z,1007.63
2016-07-10T07:07:48.503Z,1007.59
2016-07-10T07:11:04.067Z,1007.53
2016-07-10T07:14:19.769Z,1007.57
2016-07-10T07:17:39.412Z,1007.55
2016-07-10T07:20:46.476Z,1007.63
2016-07-10T07:24:02.323Z,1007.73
2016-07-10T07:27:18.001Z,1007.69
2016-07-10T07:30:33.813Z,1007.73
2016-07-10T07:33:49.700Z,1007.55
2016-07-10T07:37:05.310Z,1007.51
2016-07-10T07:40:20.963Z,1007.53
2016-07-10T07:43:40.352Z,1007.61
2016-07-10T07:46:47.531Z,1007.55
2016-07-10T07:50:03.224Z,1007.59
2016-07-10T07:53:19.032Z,1007.57
2016-07-10T07:56:34.808Z,1007.67
2016-07-10T07:59:50.778Z,1007.59
2016-07-10T08:03:06.661Z,1007.59
2016-07-10T08:06:22.610Z,1007.67
2016-07-10T08:09:42.375Z,1007.49
2016-07-10T08:12:49.928Z,1007.67
2016-07-10T08:16:05.968Z,1007.51
2016-07-10T08:19:22.270Z,1007.53
2016-07-10T08:22:42.331Z,1007.39
2016-07-10T08:25:49.985Z,1007.35
2016-07-10T08:29:05.961Z,1007.47
2016-07-10T08:32:21.953Z,1007.51
2016-07-10T08:35:41.678Z,1007.67
2016-07-10T08:38:48.995Z,1007.51
2016-07-10T08:42:04.766Z,1007.57
2016-07-10T08:45:20.806Z,1007.55
2016-07-10T08:48:40.667Z,1007.49
2016-07-10T08:51:48.274Z,1007.43
2016-07-10T08:55:04.412Z,1007.37
2016-07-10T08:58:20.695Z,1007.37
2016-07-10T09:01:40.851Z,1007.23
2016-07-10T09:04:48.567Z,1007.19
2016-07-10T09:08:04.410Z,1007.39
2016-07-10T09:11:20.156Z,1007.51
2016-07-10T09:14:39.480Z,1007.59
2016-07-10T09:17:46.143Z,1007.51
2016-07-10T09:21:01.338Z,1007.49
2016-07-10T09:24:16.846Z,1007.39
2016-07-10T09:27:32.478Z,1007.35
2016-07-10T09:30:48.306Z,1007.35
2016-07-10T09:34:03.851Z,1007.47
2016-07-10T09:37:19.711Z,1007.43
2016-07-10T09:40:39.153Z,1007.61
2016-07-10T09:43:46.173Z,1007.59
2016-07-10T09:47:02.030Z,1007.41
2016-07-10T09:50:16.867Z,1007.29
2016-07-10T09:53:32.790Z,1007.45
2016-07-10T09:56:48.516Z,1007.43
2016-07-10T10:00:04.278Z,1007.41
2016-07-10T10:03:20.110Z,1007.39
2016-07-10T10:06:39.730Z,1007.37
2016-07-10T10:09:46.877Z,1007.29
2016-07-10T10:13:02.513Z,1007.31
2016-07-10T10:16:18.203Z,1007.35
2016-07-10T10:19:33.790Z,1007.29
2016-07-10T10:22:49.191Z,1007.27
2016-07-10T10:26:04.488Z,1007.29
2016-07-10T10:29:19.521Z,1007.39
2016-07-10T10:32:34.729Z,1007.37
2016-07-10T10:35:50.216Z,1007.27
2016-07-10T10:39:05.785Z,1007.17
2016-07-10T10:42:21.032Z,1007.15
2016-07-10T10:45:40.339Z,1007.07
2016-07-10T10:48:47.178Z,1007.05
2016-07-10T10:52:02.386Z,1006.95
2016-07-10T10:55:17.949Z,1006.99
2016-07-10T10:58:33.352Z,1006.93
2016-07-10T11:01:48.282Z,1006.89
2016-07-10T11:05:03.682Z,1006.89
2016-07-10T11:08:19.042Z,1006.91
2016-07-10T11:11:34.325Z,1006.85
2016-07-10T11:14:49.499Z,1006.95
2016-07-10T11:18:04.891Z,1006.91
2016-07-10T11:21:20.101Z,1006.87
2016-07-10T11:24:39.418Z,1006.91
2016-07-10T11:27:46.058Z,1006.79
2016-07-10T11:31:01.389Z,1006.81
2016-07-10T11:34:16.657Z,1006.73
2016-07-10T11:37:29.238Z,1006.81
2016-07-10T11:40:48.576Z,1006.77
2016-07-10T11:43:55.261Z,1006.69
2016-07-10T11:47:10.640Z,1006.71
2016-07-10T11:50:25.841Z,1006.61
2016-07-10T11:53:45.233Z,1006.67
2016-07-10T11:56:51.966Z,1006.61
2016-07-10T12:00:07.411Z,1006.54
2016-07-10T12:03:22.805Z,1006.48
2016-07-10T12:06:42.106Z,1006.44
2016-07-10T12:09:48.865Z,1006.4
2016-07-10T12:13:04.175Z,1006.34
2016-07-10T12:16:19.300Z,1006.28
2016-07-10T12:19:34.720Z,1006.24
2016-07-10T12:22:50.143Z,1006.18
2016-07-10T12:26:05.449Z,1006.14
2016-07-10T12:29:20.951Z,1006.08
2016-07-10T12:32:40.393Z,1006.06
2016-07-10T12:35:47.229Z,1006.02
2016-07-10T12:39:02.642Z,1006.12
2016-07-10T12:42:18.051Z,1005.96
2016-07-10T12:45:33.303Z,1005.92
2016-07-10T12:48:48.288Z,1005.9
2016-07-10T12:52:03.455Z,1005.82
2016-07-10T12:55:18.703Z,1005.82
2016-07-10T12:58:34.044Z,1005.76
2016-07-10T13:01:49.385Z,1005.68
2016-07-10T13:05:04.765Z,1005.66
2016-07-10T13:08:20.040Z,1005.6
2016-07-10T13:11:39.091Z,1005.58
2016-07-10T13:14:45.958Z,1005.42
2016-07-10T13:18:01.243Z,1005.46
2016-07-10T13:21:16.500Z,1005.4
2016-07-10T13:24:31.777Z,1005.42
2016-07-10T13:27:46.947Z,1005.42
2016-07-10T13:31:02.442Z,1005.36
2016-07-10T13:34:17.652Z,1005.24
2016-07-10T13:37:33.194Z,1005.26
2016-07-10T13:40:48.296Z,1005.2
2016-07-10T13:44:03.824Z,1005.2
2016-07-10T13:47:19.237Z,1005.14
2016-07-10T13:50:34.496Z,1005.02
2016-07-10T13:53:49.948Z,1005.02
2016-07-10T13:57:01.784Z,1005.1
2016-07-10T14:00:16.864Z,1004.94
2016-07-10T14:03:32.294Z,1004.94
2016-07-10T14:06:47.834Z,1004.92
2016-07-10T14:10:03.234Z,1005
2016-07-10T14:13:18.774Z,1004.88
2016-07-10T14:16:34.268Z,1004.92
2016-07-10T14:19:49.466Z,1004.96
2016-07-10T14:23:04.699Z,1004.9
2016-07-10T14:26:19.886Z,1004.78
2016-07-10T14:29:39.307Z,1004.82
2016-07-10T14:32:46.268Z,1004.9
2016-07-10T14:36:01.682Z,1004.82
2016-07-10T14:39:17.220Z,1004.78
2016-07-10T14:42:31.317Z,1004.78
2016-07-10T14:45:46.618Z,1004.71
2016-07-10T14:49:02.039Z,1004.65
2016-07-10T14:52:17.458Z,1004.57
2016-07-10T14:55:32.831Z,1004.63
2016-07-10T14:58:47.298Z,1004.59
2016-07-10T15:02:03.911Z,1004.57
2016-07-10T15:05:19.125Z,1004.59
2016-07-10T15:08:34.464Z,1004.57
2016-07-10T15:11:49.442Z,1004.47
2016-07-10T15:15:04.915Z,1004.39
2016-07-10T15:18:20.300Z,1004.41
2016-07-10T15:21:39.275Z,1004.37
2016-07-10T15:24:45.995Z,1004.31
2016-07-10T15:28:01.429Z,1004.19
2016-07-10T15:31:17.012Z,1004.07
2016-07-10T15:34:32.172Z,1004.05
2016-07-10T15:37:48.188Z,1003.99
2016-07-10T15:40:55.054Z,1004.11
2016-07-10T15:44:10.415Z,1003.95
2016-07-10T15:47:25.871Z,1003.95
2016-07-10T15:50:45.290Z,1003.87
2016-07-10T15:53:52.056Z,1003.81
2016-07-10T15:57:07.568Z,1003.83
2016-07-10T16:00:22.783Z,1003.87
2016-07-10T16:03:41.769Z,1003.77
2016-07-10T16:06:48.438Z,1003.73
2016-07-10T16:10:03.622Z,1003.73
2016-07-10T16:13:18.435Z,1003.81
2016-07-10T16:16:33.902Z,1003.79
2016-07-10T16:19:49.284Z,1003.79
2016-07-10T16:23:04.552Z,1003.77
2016-07-10T16:26:19.814Z,1003.67
2016-07-10T16:29:39.218Z,1003.57
2016-07-10T16:32:46.026Z,1003.51
2016-07-10T16:36:01.179Z,1003.57
2016-07-10T16:39:16.285Z,1003.47
2016-07-10T16:42:31.859Z,1003.59
2016-07-10T16:45:47.295Z,1003.63
2016-07-10T16:49:02.752Z,1003.53
2016-07-10T16:52:18.179Z,1003.61
2016-07-10T16:55:33.476Z,1003.53
2016-07-10T16:58:48.676Z,1003.51
2016-07-10T17:02:03.968Z,1003.59
2016-07-10T17:05:18.874Z,1003.49
2016-07-10T17:08:33.816Z,1003.45
2016-07-10T17:11:48.381Z,1003.45
2016-07-10T17:15:03.700Z,1003.41
2016-07-10T17:18:18.823Z,1003.39
2016-07-10T17:21:34.231Z,1003.3
2016-07-10T17:24:49.068Z,1003.23
2016-07-10T17:28:04.273Z,1003.25
2016-07-10T17:31:19.510Z,1003.32
2016-07-10T17:34:34.830Z,1003.19
2016-07-10T17:37:50.171Z,1003.19
2016-07-10T17:41:04.108Z,1003.13
2016-07-10T17:44:20.521Z,1003.3
2016-07-10T17:47:39.700Z,1003.09
2016-07-10T17:50:46.498Z,1003.15
2016-07-10T17:54:01.691Z,1003.13
2016-07-10T17:57:16.755Z,1003.15
2016-07-10T18:00:31.836Z,1003.11
2016-07-10T18:03:46.819Z,1003.21
2016-07-10T18:07:01.836Z,1003.09
2016-07-10T18:10:16.742Z,1002.99
2016-07-10T18:13:32.200Z,1003.07
2016-07-10T18:16:47.270Z,1003.13
2016-07-10T18:20:02.628Z,1003.17
2016-07-10T18:23:17.710Z,1003.03
2016-07-10T18:26:32.745Z,1003.09
2016-07-10T18:29:47.658Z,1003.09
2016-07-10T18:33:02.554Z,1003.13
2016-07-10T18:36:17.300Z,1003.05
2016-07-10T18:39:32.264Z,1003.01
2016-07-10T18:42:46.862Z,1002.97
2016-07-10T18:46:02.200Z,1003.05
2016-07-10T18:49:13.387Z,1002.99
2016-07-10T18:52:29.786Z,1002.99
2016-07-10T18:55:48.446Z,1003.01
2016-07-10T18:58:55.229Z,1002.97
2016-07-10T19:02:10.224Z,1002.95
2016-07-10T19:05:25.045Z,1002.93
2016-07-10T19:08:43.366Z,1002.99
2016-07-10T19:11:50.121Z,1002.95
2016-07-10T19:15:03.320Z,1003.03
2016-07-10T19:18:18.392Z,1002.95
2016-07-10T19:21:33.751Z,1003.09
2016-07-10T19:24:49.012Z,1002.99
2016-07-10T19:28:03.829Z,1003.13
2016-07-10T19:31:18.595Z,1003.01
2016-07-10T19:34:33.761Z,1002.95
2016-07-10T19:37:48.733Z,1003.01
2016-07-10T19:41:03.637Z,1003.03
2016-07-10T19:44:18.731Z,1002.93
2016-07-10T19:47:33.457Z,1002.97
2016-07-10T19:50:48.331Z,1002.84
2016-07-10T19:54:03.097Z,1002.8
2016-07-10T19:57:16.947Z,1002.84
2016-07-10T20:00:33.087Z,1002.86
2016-07-10T20:03:47.921Z,1002.8
2016-07-10T20:07:02.835Z,1002.82
2016-07-10T20:10:17.721Z,1002.74
2016-07-10T20:13:32.760Z,1002.78
2016-07-10T20:16:47.528Z,1002.7
2016-07-10T20:20:01.981Z,1002.7
2016-07-10T20:23:17.372Z,1002.68
2016-07-10T20:26:32.493Z,1002.76
2016-07-10T20:29:47.002Z,1002.82
2016-07-10T20:33:02.339Z,1002.8
2016-07-10T20:36:15.967Z,1002.6
2016-07-10T20:39:30.795Z,1002.74
2016-07-10T20:42:45.655Z,1002.7
2016-07-10T20:45:59.806Z,1002.66
2016-07-10T20:49:13.360Z,1002.68
2016-07-10T20:52:29.045Z,1002.62
2016-07-10T20:55:47.852Z,1002.56
2016-07-10T20:58:54.358Z,1002.62
2016-07-10T21:02:09.098Z,1002.58
2016-07-10T21:05:23.736Z,1002.56
2016-07-10T21:08:43.020Z,1002.58
2016-07-10T21:11:48.422Z,1002.58
2016-07-10T21:15:03.899Z,1002.46
2016-07-10T21:18:18.826Z,1002.4
2016-07-10T21:21:33.587Z,1002.44
2016-07-10T21:24:48.389Z,1002.38
2016-07-10T21:28:02.854Z,1002.32
2016-07-10T21:31:17.930Z,1002.34
2016-07-10T21:34:32.890Z,1002.38
2016-07-10T21:37:47.719Z,1002.32
2016-07-10T21:41:02.958Z,1002.24
2016-07-10T21:44:17.950Z,1002.34
2016-07-10T21:47:32.901Z,1002.28
2016-07-10T21:50:47.431Z,1002.28
2016-07-10T21:54:02.509Z,1002.24
2016-07-10T21:57:16.963Z,1002.2
2016-07-10T22:00:31.844Z,1002.16
2016-07-10T22:03:49.076Z,1002.02
2016-07-10T22:06:55.752Z,1002.04
2016-07-10T22:10:10.509Z,1002.02
2016-07-10T22:13:25.275Z,1001.98
2016-07-10T22:16:43.512Z,1001.96
2016-07-10T22:19:49.893Z,1001.98
2016-07-10T22:23:04.755Z,1001.88
2016-07-10T22:26:19.813Z,1001.86
2016-07-10T22:29:35.026Z,1001.92
2016-07-10T22:32:49.961Z,1001.88
2016-07-10T22:36:05.171Z,1001.8
2016-07-10T22:39:20.417Z,1001.68
2016-07-10T22:42:35.209Z,1001.72
2016-07-10T22:45:50.274Z,1001.62
2016-07-10T22:49:05.253Z,1001.58
2016-07-10T22:52:20.021Z,1001.58
2016-07-10T22:55:34.794Z,1001.58
2016-07-10T22:58:49.277Z,1001.54
2016-07-10T23:02:04.000Z,1001.47
2016-07-10T23:05:18.632Z,1001.52
2016-07-10T23:08:33.459Z,1001.45
2016-07-10T23:11:47.905Z,1001.43
2016-07-10T23:15:02.764Z,1001.41
2016-07-10T23:18:16.787Z,1001.35
2016-07-10T23:21:31.283Z,1001.35
2016-07-10T23:24:46.263Z,1001.35
2016-07-10T23:28:00.879Z,1001.33
2016-07-10T23:31:15.661Z,1001.13
2016-07-10T23:34:30.309Z,1001.25
2016-07-10T23:37:49.151Z,1001.19
2016-07-10T23:40:55.672Z,1001.17
2016-07-10T23:44:10.455Z,1001.17
2016-07-10T23:47:25.057Z,1001.15
2016-07-10T23:50:43.594Z,1001.11
2016-07-10T23:53:50.115Z,1001.07
2016-07-10T23:57:04.906Z,1001.03
